Terminal Aerodrome Forecast
Issued by NWS

Current Version | Previous Version | Text Only | Print | Product List | Glossary On
Versions: 1 2 3 4 5 6 7 8 9 10 11 12
000
FTUS45 KGJT 251122
TAFTEX
TAF
KTEX 251122Z 2512/2612 13005KT P6SM FEW120 FEW200
     FM251800 26004KT P6SM FEW140 FEW250
     FM252000 26008KT P6SM FEW140 FEW250
     FM260200 13004KT P6SM FEW150 FEW250=

USA.gov is the U.S. government's official web portal to all federal, state and local government web resources and services.